• Join FlightAware (Why Join?)
  • Login
  • US Flag 
03:58AM EDT


 

Airport Tracker/Info


-or-


 

Live Flight TrackerFlight Track Log ✈ N839CA ✈ 07-May-2013 ✈ KBWI - KEWR

Flight Track Log - Related Links

Times and Time Zones

All times are in EDT time to prevent confusion due to time zone crossing. See the N839CA flight status page for this flight to view local times or setup timezone preferences in your user account.

Time Position Orientation Groundspeed Altitude Reporting Facility
EDT Latitude Longitude Course Direction KTS MPH feet Rate Location/Type
10:11AM 39.1500 -76.6333 38° Northeast 139 160 1,700  Level Potomac TRACON
10:12AM 39.1500 -76.5833 90° East 145 167 3,100 1,500 Climbing Potomac TRACON
10:13AM 39.1500 -76.5333 90° East 157 181 4,600 1,440 Climbing Potomac TRACON
10:14AM 39.1500 -76.4833 90° East 164 189 6,000 1,380 Climbing Potomac TRACON
10:15AM 39.1833 -76.4333 49° Northeast 165 190 7,500 1,440 Climbing Potomac TRACON
10:16AM 39.1983 -76.1683 38° Northeast  Level FlightAware Approximate
10:16AM 39.2000 -76.3833 67° East 165 190 8,800  Level Potomac TRACON
10:17AM 39.2167 -76.3167 72° East 171 197 10,100 1,140 Climbing Potomac TRACON
10:18AM 39.2333 -76.2667 67° East 175 201 11,000 420 Climbing Potomac TRACON
10:19AM 39.2500 -76.2000 72° East 222 255 11,000  Level Potomac TRACON
10:21AM 39.3333 -76.0167 60° Northeast 252 290 11,000  Level Philadelphia TRACON
10:22AM 39.3833 -75.9667 38° Northeast 259 298 11,000  Level Philadelphia TRACON
10:23AM 39.4333 -75.9000 46° Northeast 260 299 11,000  Level Philadelphia TRACON
10:24AM 39.4833 -75.8333 46° Northeast 263 303 11,000  Level Philadelphia TRACON
10:25AM 39.5333 -75.7833 38° Northeast 262 302 11,000  Level Philadelphia TRACON
10:26AM 39.6000 -75.7167 38° Northeast 263 303 11,000  Level Philadelphia TRACON
10:27AM 39.6500 -75.6500 46° Northeast 264 304 11,000  Level Philadelphia TRACON
10:28AM 39.6833 -75.5667 63° Northeast 253 291 11,000  Level Philadelphia TRACON
10:29AM 39.7167 -75.4833 63° Northeast 254 292 11,000  Level Philadelphia TRACON
10:30AM 39.7333 -75.4000 75° East 255 293 11,000  Level Philadelphia TRACON
10:31AM 39.7667 -75.3167 62° Northeast 254 292 11,000 -480 Level Philadelphia TRACON
10:32AM 39.7833 -75.2333 75° East 271 312 10,100 -540 Descending Philadelphia TRACON
10:33AM 39.8167 -75.1500 62° Northeast 252 290 10,000 -60 Descending Philadelphia TRACON
10:34AM 39.8333 -75.0500 78° East 254 292 10,000 -240 Level Philadelphia TRACON
10:35AM 39.8667 -74.9667 62° Northeast 257 296 9,600 -600 Descending Philadelphia TRACON
10:36AM 39.9167 -74.9000 46° Northeast 272 313 8,800 -840 Descending Philadelphia TRACON
10:37AM 39.9667 -74.8333 46° Northeast 267 307 8,000 -840 Descending Philadelphia TRACON
10:38AM 40.0167 -74.7667 46° Northeast 262 302 7,200 -480 Descending Philadelphia TRACON
10:39AM 40.0833 -74.6833 44° Northeast 257 296 7,000 -120 Descending New York TRACON
10:40AM 40.1333 -74.6333 37° Northeast 256 295 7,000 -120 Level New York TRACON
10:41AM 40.2000 -74.5833 30° Northeast 255 293 6,800 -600 Descending New York TRACON
10:42AM 40.2500 -74.5167 45° Northeast 263 303 5,800 -900 Descending New York TRACON
10:43AM 40.3167 -74.4667 30° Northeast 258 297 5,000 -840 Descending New York TRACON
10:44AM 40.3667 -74.4667 360° North 243 280 4,300 -720 Descending New York TRACON
10:45AM 40.4333 -74.4500 11° North 211 243 3,700 -660 Descending New York TRACON
10:46AM 40.4667 -74.3833 57° Northeast 197 227 3,000 -360 Descending New York TRACON
10:47AM 40.4833 -74.3167 72° East 198 228 3,000  Level New York TRACON
10:48AM 40.5167 -74.2833 37° Northeast 190 219 3,000 -300 Level New York TRACON
10:49AM 40.5667 -74.2333 37° Northeast 188 216 2,400 -840 Descending New York TRACON
10:50AM 40.6167 -74.2167 14° North 181 208 1,400 -960 Descending New York TRACON
10:51AM 40.6500 -74.1833 37° Northeast 144 166 600 -840 Descending New York TRACON
10:53AM 40.6833 -74.1667 21° North  Level FlightAware Approximate
11:00AM 40.6925 -74.1687 21° North  Level Estimated
11:01AM 40.6925 -74.1687 21° North  Level Estimated